Kathy C — 2CTI7 — position and weather

sailwx.info

Track history (hours):
 
Tides and Currents Weather Stations Pressure Air Temp Water Temp Dewpoint Dewpoint Depression Visibility Wind Speed Wind Dir Waves Ship Positions

Kathy C

Last reported at 2017-Aug-22 18:46 UTC. Time now 2017-Aug-22 20:45 UTC.
Position N 36°07' W 005°12'.

Length 106 m; draft 7.1 m.

Type: Cargo ship. MMSI: 235075591.

Date/timePositionNaut miles runAvg speedWind from/ knotsBaromVisibWave heightAir tempDewpointWater temp
2017-Aug-22 18:46N 36°07' W 005°12'1 1.7
2017-Aug-22 18:19N 36°07' W 005°12'1 2.0
2017-Aug-22 18:00N 36°08' W 005°11'185 9.5
2017-Aug-21 22:25N 36°32' W 001°23'3310.3
2017-Aug-21 19:12N 36°38' W 000°42'210.6
2017-Aug-21 19:00N 36°38' W 000°40'710.6
2017-Aug-21 18:23N 36°39' W 000°32'1410.6
2017-Aug-21 17:07N 36°42' W 000°15'110.5
2017-Aug-21 17:00N 36°43' W 000°14'610.8
2017-Aug-21 16:26N 36°43' W 000°06'1010.9
2017-Aug-21 15:33N 36°45' E 000°06'111.0
2017-Aug-21 15:30N 36°45' E 000°06'2410.5
2017-Aug-21 13:11N 36°48' E 000°37'43310.1
2017-Aug-19 18:14N 37°39' E 009°37'3410.3
2017-Aug-19 14:55N 37°40' E 010°20'2710.3
2017-Aug-19 12:17N 37°39' E 010°54'510.4
2017-Aug-19 11:48N 37°39' E 011°01'310.4
2017-Aug-19 11:30N 37°39' E 011°05'510.2
2017-Aug-19 11:00N 37°39' E 011°11'1510.4
2017-Aug-19 09:33N 37°38' E 011°30'110.3
2017-Aug-19 09:30N 37°38' E 011°31'510.2
2017-Aug-19 09:00N 37°38' E 011°37'510.0
2017-Aug-19 08:30N 37°38' E 011°44'510.2
2017-Aug-19 08:00N 37°37' E 011°50'910.3
2017-Aug-19 07:07N 37°34' E 012°01'210.0
2017-Aug-19 06:53N 37°32' E 012°03'410.0
2017-Aug-19 06:28N 37°31' E 012°08'510.3
2017-Aug-19 06:00N 37°29' E 012°13'510.2
2017-Aug-19 05:30N 37°26' E 012°19'1110.4
2017-Aug-19 04:24N 37°21' E 012°32'3310.1
2017-Aug-19 01:10N 37°08' E 013°10'210.0
2017-Aug-19 00:58N 37°07' E 013°12'7 9.9
2017-Aug-19 00:15N 37°05' E 013°20'5 9.8
2017-Aug-18 23:47N 37°03' E 013°25'5 9.8
2017-Aug-18 23:15N 37°01' E 013°32'2 9.8
2017-Aug-18 23:00N 36°60' E 013°34'5 9.7
2017-Aug-18 22:30N 36°58' E 013°40'5 9.7
2017-Aug-18 22:00N 36°56' E 013°45'5 9.6
2017-Aug-18 21:30N 36°54' E 013°51'5 9.3
2017-Aug-18 21:00N 36°52' E 013°56'4 8.9
2017-Aug-18 20:30N 36°51' E 014°01'4 8.9
2017-Aug-18 20:00N 36°49' E 014°07'5 9.0
2017-Aug-18 19:30N 36°47' E 014°12'5 9.1
2017-Aug-18 19:00N 36°46' E 014°17'5 9.3
2017-Aug-18 18:30N 36°44' E 014°23'5 9.6
2017-Aug-18 18:00N 36°42' E 014°28'5 9.4
2017-Aug-18 17:30N 36°41' E 014°34'5 9.9
2017-Aug-18 17:00N 36°39' E 014°40'510.6
2017-Aug-18 16:30N 36°37' E 014°46'510.8
2017-Aug-18 16:00N 36°37' E 014°52'510.6
2017-Aug-18 15:30N 36°36' E 014°59'510.5
2017-Aug-18 15:00N 36°35' E 015°05'510.4
2017-Aug-18 14:30N 36°34' E 015°12'1010.3
2017-Aug-18 13:30N 36°33' E 015°24'510.5
2017-Aug-18 13:00N 36°33' E 015°31'510.8
2017-Aug-18 12:30N 36°33' E 015°38'610.8
2017-Aug-18 12:00N 36°34' E 015°45'  
2017-Aug-13 14:54N 41°16' E 029°02'  
Track history (hours):
 
Tides and Currents Weather Stations Pressure Air Temp Water Temp Dewpoint Dewpoint Depression Visibility Wind Speed Wind Dir Waves Ship Positions

Kathy C

Last reported at 2017-Aug-22 18:46 UTC. Time now 2017-Aug-22 20:45 UTC.
Position N 36°07' W 005°12'.

Length 106 m; draft 7.1 m.

Type: Cargo ship. MMSI: 235075591.

Date/timePositionNaut miles runAvg speedWind from/ knotsBaromVisibWave heightAir tempDewpointWater temp
2017-Aug-22 18:46N 36°07' W 005°12'1 1.7
2017-Aug-22 18:19N 36°07' W 005°12'1 2.0
2017-Aug-22 18:00N 36°08' W 005°11'185 9.5
2017-Aug-21 22:25N 36°32' W 001°23'3310.3
2017-Aug-21 19:12N 36°38' W 000°42'210.6
2017-Aug-21 19:00N 36°38' W 000°40'710.6
2017-Aug-21 18:23N 36°39' W 000°32'1410.6
2017-Aug-21 17:07N 36°42' W 000°15'110.5
2017-Aug-21 17:00N 36°43' W 000°14'610.8
2017-Aug-21 16:26N 36°43' W 000°06'1010.9
2017-Aug-21 15:33N 36°45' E 000°06'111.0
2017-Aug-21 15:30N 36°45' E 000°06'2410.5
2017-Aug-21 13:11N 36°48' E 000°37'43310.1
2017-Aug-19 18:14N 37°39' E 009°37'3410.3
2017-Aug-19 14:55N 37°40' E 010°20'2710.3
2017-Aug-19 12:17N 37°39' E 010°54'510.4
2017-Aug-19 11:48N 37°39' E 011°01'310.4
2017-Aug-19 11:30N 37°39' E 011°05'510.2
2017-Aug-19 11:00N 37°39' E 011°11'1510.4
2017-Aug-19 09:33N 37°38' E 011°30'110.3
2017-Aug-19 09:30N 37°38' E 011°31'510.2
2017-Aug-19 09:00N 37°38' E 011°37'510.0
2017-Aug-19 08:30N 37°38' E 011°44'510.2
2017-Aug-19 08:00N 37°37' E 011°50'910.3
2017-Aug-19 07:07N 37°34' E 012°01'210.0
2017-Aug-19 06:53N 37°32' E 012°03'410.0
2017-Aug-19 06:28N 37°31' E 012°08'510.3
2017-Aug-19 06:00N 37°29' E 012°13'510.2
2017-Aug-19 05:30N 37°26' E 012°19'1110.4
2017-Aug-19 04:24N 37°21' E 012°32'3310.1
2017-Aug-19 01:10N 37°08' E 013°10'210.0
2017-Aug-19 00:58N 37°07' E 013°12'7 9.9
2017-Aug-19 00:15N 37°05' E 013°20'5 9.8
2017-Aug-18 23:47N 37°03' E 013°25'5 9.8
2017-Aug-18 23:15N 37°01' E 013°32'2 9.8
2017-Aug-18 23:00N 36°60' E 013°34'5 9.7
2017-Aug-18 22:30N 36°58' E 013°40'5 9.7
2017-Aug-18 22:00N 36°56' E 013°45'5 9.6
2017-Aug-18 21:30N 36°54' E 013°51'5 9.3
2017-Aug-18 21:00N 36°52' E 013°56'4 8.9
2017-Aug-18 20:30N 36°51' E 014°01'4 8.9
2017-Aug-18 20:00N 36°49' E 014°07'5 9.0
2017-Aug-18 19:30N 36°47' E 014°12'5 9.1
2017-Aug-18 19:00N 36°46' E 014°17'5 9.3
2017-Aug-18 18:30N 36°44' E 014°23'5 9.6
2017-Aug-18 18:00N 36°42' E 014°28'5 9.4
2017-Aug-18 17:30N 36°41' E 014°34'5 9.9
2017-Aug-18 17:00N 36°39' E 014°40'510.6
2017-Aug-18 16:30N 36°37' E 014°46'510.8
2017-Aug-18 16:00N 36°37' E 014°52'510.6
2017-Aug-18 15:30N 36°36' E 014°59'510.5
2017-Aug-18 15:00N 36°35' E 015°05'510.4
2017-Aug-18 14:30N 36°34' E 015°12'1010.3
2017-Aug-18 13:30N 36°33' E 015°24'510.5
2017-Aug-18 13:00N 36°33' E 015°31'510.8
2017-Aug-18 12:30N 36°33' E 015°38'610.8
2017-Aug-18 12:00N 36°34' E 015°45'  
2017-Aug-13 14:54N 41°16' E 029°02'  

Dump ship's entire track history